sensor_id;sensor_type;location;lat;lon;timestamp;pressure;altitude;pressure_sealevel;temperature;humidity
45050;BME280;61798;48.048;-1.928;2023-07-13T00:00:28;101141.25;;;14.60;100.00
45050;BME280;61798;48.048;-1.928;2023-07-13T00:02:35;101121.53;;;14.53;100.00
45050;BME280;61798;48.048;-1.928;2023-07-13T00:04:42;101131.91;;;14.29;100.00
45050;BME280;61798;48.048;-1.928;2023-07-13T00:06:49;101113.00;;;14.22;100.00
45050;BME280;61798;48.048;-1.928;2023-07-13T00:08:57;101121.69;;;14.10;100.00
45050;BME280;61798;48.048;-1.928;2023-07-13T00:11:04;101106.38;;;14.24;100.00
45050;BME280;61798;48.048;-1.928;2023-07-13T00:13:11;101126.69;;;14.27;100.00
45050;BME280;61798;48.048;-1.928;2023-07-13T00:15:24;101133.53;;;14.23;100.00
45050;BME280;61798;48.048;-1.928;2023-07-13T00:17:32;101110.31;;;14.42;100.00
45050;BME280;61798;48.048;-1.928;2023-07-13T00:19:38;101140.81;;;14.36;100.00
45050;BME280;61798;48.048;-1.928;2023-07-13T00:21:45;101147.25;;;14.35;100.00
45050;BME280;61798;48.048;-1.928;2023-07-13T00:23:52;101125.88;;;14.13;100.00
45050;BME280;61798;48.048;-1.928;2023-07-13T00:26:01;101144.50;;;14.08;100.00
45050;BME280;61798;48.048;-1.928;2023-07-13T00:28:08;101131.88;;;14.15;100.00
45050;BME280;61798;48.048;-1.928;2023-07-13T00:30:16;101143.25;;;14.10;100.00
45050;BME280;61798;48.048;-1.928;2023-07-13T00:32:24;101134.53;;;14.01;100.00
45050;BME280;61798;48.048;-1.928;2023-07-13T00:34:35;101121.50;;;14.05;100.00
45050;BME280;61798;48.048;-1.928;2023-07-13T00:36:42;101112.53;;;13.98;100.00
45050;BME280;61798;48.048;-1.928;2023-07-13T00:38:49;101104.38;;;13.63;100.00
45050;BME280;61798;48.048;-1.928;2023-07-13T00:40:56;101121.66;;;13.90;100.00
45050;BME280;61798;48.048;-1.928;2023-07-13T00:43:09;101135.41;;;14.09;100.00
45050;BME280;61798;48.048;-1.928;2023-07-13T00:47:27;101141.81;;;14.21;100.00
45050;BME280;61798;48.048;-1.928;2023-07-13T00:49:35;101128.56;;;14.13;100.00
45050;BME280;61798;48.048;-1.928;2023-07-13T00:51:49;101136.59;;;13.99;100.00
45050;BME280;61798;48.048;-1.928;2023-07-13T00:54:00;101129.59;;;14.05;100.00
45050;BME280;61798;48.048;-1.928;2023-07-13T00:56:10;101132.03;;;13.93;100.00
45050;BME280;61798;48.048;-1.928;2023-07-13T00:58:17;101101.53;;;13.72;100.00
45050;BME280;61798;48.048;-1.928;2023-07-13T01:00:29;101106.06;;;13.78;100.00
45050;BME280;61798;48.048;-1.928;2023-07-13T01:02:42;101133.69;;;13.94;100.00
45050;BME280;61798;48.048;-1.928;2023-07-13T01:04:50;101136.19;;;13.89;100.00
45050;BME280;61798;48.048;-1.928;2023-07-13T01:06:57;101127.03;;;13.90;100.00
45050;BME280;61798;48.048;-1.928;2023-07-13T01:09:06;101139.31;;;13.99;100.00
45050;BME280;61798;48.048;-1.928;2023-07-13T01:11:19;101136.00;;;14.04;100.00
45050;BME280;61798;48.048;-1.928;2023-07-13T01:13:28;101147.81;;;14.10;100.00
45050;BME280;61798;48.048;-1.928;2023-07-13T01:15:46;101123.97;;;13.93;100.00
45050;BME280;61798;48.048;-1.928;2023-07-13T01:17:54;101141.38;;;13.97;100.00
45050;BME280;61798;48.048;-1.928;2023-07-13T01:20:02;101134.09;;;13.91;100.00
45050;BME280;61798;48.048;-1.928;2023-07-13T01:22:16;101137.63;;;13.84;100.00
45050;BME280;61798;48.048;-1.928;2023-07-13T01:24:23;101131.13;;;13.65;100.00
45050;BME280;61798;48.048;-1.928;2023-07-13T01:26:30;101112.00;;;13.53;100.00
45050;BME280;61798;48.048;-1.928;2023-07-13T01:28:37;101139.59;;;13.62;100.00
45050;BME280;61798;48.048;-1.928;2023-07-13T01:30:45;101144.50;;;13.58;100.00
45050;BME280;61798;48.048;-1.928;2023-07-13T01:32:52;101141.25;;;13.63;100.00
45050;BME280;61798;48.048;-1.928;2023-07-13T01:35:00;101113.88;;;13.59;100.00
45050;BME280;61798;48.048;-1.928;2023-07-13T01:37:07;101107.00;;;13.50;100.00
45050;BME280;61798;48.048;-1.928;2023-07-13T01:39:14;101141.47;;;13.61;100.00
45050;BME280;61798;48.048;-1.928;2023-07-13T01:41:23;101130.72;;;13.75;100.00
45050;BME280;61798;48.048;-1.928;2023-07-13T01:43:30;101133.88;;;13.85;100.00
45050;BME280;61798;48.048;-1.928;2023-07-13T01:45:37;101148.81;;;13.95;100.00
45050;BME280;61798;48.048;-1.928;2023-07-13T01:47:45;101145.28;;;13.94;100.00
45050;BME280;61798;48.048;-1.928;2023-07-13T01:49:52;101123.75;;;13.94;100.00
45050;BME280;61798;48.048;-1.928;2023-07-13T01:51:58;101118.53;;;13.86;100.00
45050;BME280;61798;48.048;-1.928;2023-07-13T01:54:06;101145.94;;;14.10;100.00
45050;BME280;61798;48.048;-1.928;2023-07-13T01:56:13;101146.94;;;13.89;100.00
45050;BME280;61798;48.048;-1.928;2023-07-13T01:58:19;101146.88;;;13.68;100.00
45050;BME280;61798;48.048;-1.928;2023-07-13T02:00:27;101139.00;;;13.67;100.00
45050;BME280;61798;48.048;-1.928;2023-07-13T02:02:34;101141.09;;;13.78;100.00
45050;BME280;61798;48.048;-1.928;2023-07-13T02:04:40;101150.00;;;13.79;100.00
45050;BME280;61798;48.048;-1.928;2023-07-13T02:06:47;101146.31;;;13.87;100.00
45050;BME280;61798;48.048;-1.928;2023-07-13T02:08:54;101141.34;;;13.83;100.00
45050;BME280;61798;48.048;-1.928;2023-07-13T02:11:03;101152.69;;;13.72;100.00
45050;BME280;61798;48.048;-1.928;2023-07-13T02:13:10;101146.56;;;14.05;100.00
45050;BME280;61798;48.048;-1.928;2023-07-13T02:15:17;101123.13;;;14.06;100.00
45050;BME280;61798;48.048;-1.928;2023-07-13T02:17:26;101145.34;;;14.15;100.00
45050;BME280;61798;48.048;-1.928;2023-07-13T02:19:33;101137.47;;;14.20;100.00
45050;BME280;61798;48.048;-1.928;2023-07-13T02:21:41;101120.84;;;13.96;100.00
45050;BME280;61798;48.048;-1.928;2023-07-13T02:23:48;101145.34;;;14.15;100.00
45050;BME280;61798;48.048;-1.928;2023-07-13T02:25:57;101115.22;;;13.84;100.00
45050;BME280;61798;48.048;-1.928;2023-07-13T02:28:04;101134.75;;;13.93;100.00
45050;BME280;61798;48.048;-1.928;2023-07-13T02:30:12;101133.06;;;13.92;100.00
45050;BME280;61798;48.048;-1.928;2023-07-13T02:32:18;101144.06;;;13.97;100.00
45050;BME280;61798;48.048;-1.928;2023-07-13T02:34:25;101125.00;;;13.99;100.00
45050;BME280;61798;48.048;-1.928;2023-07-13T02:36:33;101120.63;;;13.98;100.00
45050;BME280;61798;48.048;-1.928;2023-07-13T02:38:40;101120.00;;;13.89;100.00
45050;BME280;61798;48.048;-1.928;2023-07-13T02:40:47;101146.97;;;14.02;100.00
45050;BME280;61798;48.048;-1.928;2023-07-13T02:42:54;101128.09;;;13.95;100.00
45050;BME280;61798;48.048;-1.928;2023-07-13T02:45:01;101098.41;;;13.82;100.00
45050;BME280;61798;48.048;-1.928;2023-07-13T02:47:09;101106.34;;;14.04;100.00
45050;BME280;61798;48.048;-1.928;2023-07-13T02:49:16;101134.16;;;14.18;100.00
45050;BME280;61798;48.048;-1.928;2023-07-13T02:51:23;101130.84;;;14.09;100.00
45050;BME280;61798;48.048;-1.928;2023-07-13T02:53:30;101132.91;;;14.14;100.00
45050;BME280;61798;48.048;-1.928;2023-07-13T02:55:37;101138.31;;;14.21;100.00
45050;BME280;61798;48.048;-1.928;2023-07-13T02:57:44;101120.66;;;14.18;100.00
45050;BME280;61798;48.048;-1.928;2023-07-13T02:59:51;101126.66;;;14.13;100.00
45050;BME280;61798;48.048;-1.928;2023-07-13T03:01:58;101131.25;;;14.26;100.00
45050;BME280;61798;48.048;-1.928;2023-07-13T03:04:07;101118.84;;;14.32;100.00
45050;BME280;61798;48.048;-1.928;2023-07-13T03:06:15;101137.25;;;14.15;100.00
45050;BME280;61798;48.048;-1.928;2023-07-13T03:08:23;101134.56;;;14.15;100.00
45050;BME280;61798;48.048;-1.928;2023-07-13T03:10:29;101122.75;;;14.09;100.00
45050;BME280;61798;48.048;-1.928;2023-07-13T03:12:36;101118.16;;;14.03;100.00
45050;BME280;61798;48.048;-1.928;2023-07-13T03:14:43;101096.22;;;14.13;100.00
45050;BME280;61798;48.048;-1.928;2023-07-13T03:16:51;101091.63;;;14.00;100.00
45050;BME280;61798;48.048;-1.928;2023-07-13T03:18:59;101143.50;;;14.36;100.00
45050;BME280;61798;48.048;-1.928;2023-07-13T03:21:07;101120.28;;;14.28;100.00
45050;BME280;61798;48.048;-1.928;2023-07-13T03:23:14;101147.03;;;14.50;100.00
45050;BME280;61798;48.048;-1.928;2023-07-13T03:25:21;101133.78;;;14.48;100.00
45050;BME280;61798;48.048;-1.928;2023-07-13T03:27:28;101132.09;;;14.54;100.00
45050;BME280;61798;48.048;-1.928;2023-07-13T03:29:36;101124.00;;;14.34;100.00
45050;BME280;61798;48.048;-1.928;2023-07-13T03:31:43;101107.63;;;14.35;100.00
45050;BME280;61798;48.048;-1.928;2023-07-13T03:33:50;101121.53;;;14.53;100.00
45050;BME280;61798;48.048;-1.928;2023-07-13T03:35:58;101128.78;;;14.45;100.00
45050;BME280;61798;48.048;-1.928;2023-07-13T03:38:05;101138.31;;;14.41;100.00
45050;BME280;61798;48.048;-1.928;2023-07-13T03:40:12;101150.78;;;14.56;100.00
45050;BME280;61798;48.048;-1.928;2023-07-13T03:42:20;101121.31;;;14.61;100.00
45050;BME280;61798;48.048;-1.928;2023-07-13T03:44:27;101137.47;;;14.61;100.00
45050;BME280;61798;48.048;-1.928;2023-07-13T03:46:34;101124.84;;;14.55;100.00
45050;BME280;61798;48.048;-1.928;2023-07-13T03:48:44;101154.31;;;14.56;100.00
45050;BME280;61798;48.048;-1.928;2023-07-13T03:50:51;101111.16;;;14.29;100.00
45050;BME280;61798;48.048;-1.928;2023-07-13T03:52:59;101159.50;;;14.51;100.00
45050;BME280;61798;48.048;-1.928;2023-07-13T03:55:07;101124.84;;;14.34;100.00
45050;BME280;61798;48.048;-1.928;2023-07-13T03:57:14;101147.88;;;14.64;100.00
45050;BME280;61798;48.048;-1.928;2023-07-13T03:59:21;101160.94;;;14.67;100.00
45050;BME280;61798;48.048;-1.928;2023-07-13T04:01:29;101160.75;;;14.76;100.00
45050;BME280;61798;48.048;-1.928;2023-07-13T04:03:36;101159.06;;;14.75;100.00
45050;BME280;61798;48.048;-1.928;2023-07-13T04:05:44;101147.44;;;14.54;100.00
45050;BME280;61798;48.048;-1.928;2023-07-13T04:07:51;101131.06;;;14.55;100.00
45050;BME280;61798;48.048;-1.928;2023-07-13T04:09:58;101165.50;;;14.60;100.00
45050;BME280;61798;48.048;-1.928;2023-07-13T04:12:05;101162.19;;;14.58;100.00
45050;BME280;61798;48.048;-1.928;2023-07-13T04:14:12;101126.28;;;14.51;100.00
45050;BME280;61798;48.048;-1.928;2023-07-13T04:16:19;101159.06;;;14.61;100.00
45050;BME280;61798;48.048;-1.928;2023-07-13T04:18:31;101162.41;;;14.56;100.00
45050;BME280;61798;48.048;-1.928;2023-07-13T04:20:39;101171.94;;;14.79;100.00
45050;BME280;61798;48.048;-1.928;2023-07-13T04:22:46;101167.56;;;14.78;100.00
45050;BME280;61798;48.048;-1.928;2023-07-13T04:24:53;101161.56;;;14.76;100.00
45050;BME280;61798;48.048;-1.928;2023-07-13T04:27:00;101162.41;;;14.77;100.00
45050;BME280;61798;48.048;-1.928;2023-07-13T04:29:07;101175.25;;;14.75;100.00
45050;BME280;61798;48.048;-1.928;2023-07-13T04:31:14;101186.03;;;14.82;100.00
45050;BME280;61798;48.048;-1.928;2023-07-13T04:33:20;101172.56;;;14.75;100.00
45050;BME280;61798;48.048;-1.928;2023-07-13T04:35:29;101171.94;;;14.66;100.00
45050;BME280;61798;48.048;-1.928;2023-07-13T04:37:36;101176.50;;;14.79;100.00
45050;BME280;61798;48.048;-1.928;2023-07-13T04:39:42;101172.38;;;14.76;100.00
45050;BME280;61798;48.048;-1.928;2023-07-13T04:41:49;101146.84;;;14.52;100.00
45050;BME280;61798;48.048;-1.928;2023-07-13T04:43:55;101179.19;;;14.65;100.00
45050;BME280;61798;48.048;-1.928;2023-07-13T04:46:07;101176.31;;;14.80;100.00
45050;BME280;61798;48.048;-1.928;2023-07-13T04:48:14;101179.44;;;14.91;100.00
45050;BME280;61798;48.048;-1.928;2023-07-13T04:50:20;101173.19;;;14.77;100.00
45050;BME280;61798;48.048;-1.928;2023-07-13T04:52:28;101184.00;;;14.77;100.00
45050;BME280;61798;48.048;-1.928;2023-07-13T04:54:35;101178.38;;;14.65;100.00
45050;BME280;61798;48.048;-1.928;2023-07-13T04:56:42;101184.38;;;14.87;100.00
45050;BME280;61798;48.048;-1.928;2023-07-13T04:58:50;101171.94;;;14.79;100.00
45050;BME280;61798;48.048;-1.928;2023-07-13T05:01:02;101193.50;;;14.86;100.00
45050;BME280;61798;48.048;-1.928;2023-07-13T05:03:10;101197.06;;;14.80;100.00
45050;BME280;61798;48.048;-1.928;2023-07-13T05:05:16;101159.69;;;14.49;100.00
45050;BME280;61798;48.048;-1.928;2023-07-13T05:07:22;101161.16;;;14.59;100.00
45050;BME280;61798;48.048;-1.928;2023-07-13T05:09:29;101207.63;;;14.82;100.00
45050;BME280;61798;48.048;-1.928;2023-07-13T05:11:35;101193.53;;;14.73;100.00
45050;BME280;61798;48.048;-1.928;2023-07-13T05:13:42;101215.53;;;14.83;100.00
45050;BME280;61798;48.048;-1.928;2023-07-13T05:16:08;101219.06;;;14.77;100.00
45050;BME280;61798;48.048;-1.928;2023-07-13T05:18:15;101207.44;;;14.83;100.00
45050;BME280;61798;48.048;-1.928;2023-07-13T05:20:21;101190.19;;;14.77;100.00
45050;BME280;61798;48.048;-1.928;2023-07-13T05:22:27;101206.59;;;14.83;100.00
45050;BME280;61798;48.048;-1.928;2023-07-13T05:24:34;101205.34;;;14.78;100.00
45050;BME280;61798;48.048;-1.928;2023-07-13T05:26:40;101187.28;;;14.65;100.00
45050;BME280;61798;48.048;-1.928;2023-07-13T05:28:48;101228.84;;;14.92;100.00
45050;BME280;61798;48.048;-1.928;2023-07-13T05:30:54;101214.50;;;14.91;100.00
45050;BME280;61798;48.048;-1.928;2023-07-13T05:33:00;101209.09;;;14.98;100.00
45050;BME280;61798;48.048;-1.928;2023-07-13T05:35:07;101222.00;;;14.96;100.00
45050;BME280;61798;48.048;-1.928;2023-07-13T05:37:13;101228.19;;;15.24;100.00
45050;BME280;61798;48.048;-1.928;2023-07-13T05:39:23;101233.38;;;15.25;100.00
45050;BME280;61798;48.048;-1.928;2023-07-13T05:41:29;101203.50;;;15.06;100.00
45050;BME280;61798;48.048;-1.928;2023-07-13T05:43:36;101193.94;;;15.10;100.00
45050;BME280;61798;48.048;-1.928;2023-07-13T05:45:42;101231.69;;;15.38;100.00
45050;BME280;61798;48.048;-1.928;2023-07-13T05:47:48;101235.03;;;15.33;100.00
45050;BME280;61798;48.048;-1.928;2023-07-13T05:49:55;101228.19;;;15.30;100.00
45050;BME280;61798;48.048;-1.928;2023-07-13T05:52:01;101251.03;;;15.35;100.00
45050;BME280;61798;48.048;-1.928;2023-07-13T05:54:09;101210.34;;;15.22;100.00
45050;BME280;61798;48.048;-1.928;2023-07-13T05:56:15;101247.47;;;15.48;100.00
45050;BME280;61798;48.048;-1.928;2023-07-13T05:58:22;101242.06;;;15.48;100.00
45050;BME280;61798;48.048;-1.928;2023-07-13T06:00:28;101230.44;;;15.47;100.00
45050;BME280;61798;48.048;-1.928;2023-07-13T06:02:35;101252.47;;;15.44;100.00
45050;BME280;61798;48.048;-1.928;2023-07-13T06:04:42;101256.41;;;15.48;100.00
45050;BME280;61798;48.048;-1.928;2023-07-13T06:06:48;101220.28;;;15.36;100.00
45050;BME280;61798;48.048;-1.928;2023-07-13T06:08:55;101246.22;;;15.50;100.00
45050;BME280;61798;48.048;-1.928;2023-07-13T06:11:10;101240.81;;;15.50;100.00
45050;BME280;61798;48.048;-1.928;2023-07-13T06:13:19;101210.31;;;15.36;100.00
45050;BME280;61798;48.048;-1.928;2023-07-13T06:15:24;101231.91;;;15.43;100.00
45050;BME280;61798;48.048;-1.928;2023-07-13T06:17:30;101236.84;;;15.53;100.00
45050;BME280;61798;48.048;-1.928;2023-07-13T06:19:37;101242.63;;;15.70;100.00
45050;BME280;61798;48.048;-1.928;2023-07-13T06:21:44;101253.00;;;15.73;100.00
45050;BME280;61798;48.048;-1.928;2023-07-13T06:23:51;101230.22;;;15.56;100.00
45050;BME280;61798;48.048;-1.928;2023-07-13T06:25:58;101238.50;;;15.68;100.00
45050;BME280;61798;48.048;-1.928;2023-07-13T06:28:04;101222.91;;;15.63;100.00
45050;BME280;61798;48.048;-1.928;2023-07-13T06:30:12;101245.31;;;15.84;100.00
45050;BME280;61798;48.048;-1.928;2023-07-13T06:32:18;101261.91;;;15.88;100.00
45050;BME280;61798;48.048;-1.928;2023-07-13T06:34:25;101256.47;;;15.94;100.00
45050;BME280;61798;48.048;-1.928;2023-07-13T06:36:31;101240.56;;;15.72;100.00
45050;BME280;61798;48.048;-1.928;2023-07-13T06:38:39;101258.56;;;15.85;100.00
45050;BME280;61798;48.048;-1.928;2023-07-13T06:40:45;101273.28;;;15.96;100.00
45050;BME280;61798;48.048;-1.928;2023-07-13T06:42:51;101258.97;;;15.89;100.00
45050;BME280;61798;48.048;-1.928;2023-07-13T06:44:58;101257.75;;;15.85;100.00
45050;BME280;61798;48.048;-1.928;2023-07-13T06:47:04;101280.59;;;15.96;100.00
45050;BME280;61798;48.048;-1.928;2023-07-13T06:49:11;101276.84;;;15.97;100.00
45050;BME280;61798;48.048;-1.928;2023-07-13T06:51:19;101277.88;;;16.03;100.00
45050;BME280;61798;48.048;-1.928;2023-07-13T06:53:25;101262.91;;;15.93;100.00
45050;BME280;61798;48.048;-1.928;2023-07-13T06:55:32;101264.38;;;15.96;100.00
45050;BME280;61798;48.048;-1.928;2023-07-13T06:57:38;101270.78;;;16.02;100.00
45050;BME280;61798;48.048;-1.928;2023-07-13T06:59:45;101256.91;;;15.91;100.00
45050;BME280;61798;48.048;-1.928;2023-07-13T07:01:53;101257.56;;;15.80;100.00
45050;BME280;61798;48.048;-1.928;2023-07-13T07:03:59;101262.72;;;15.95;100.00
45050;BME280;61798;48.048;-1.928;2023-07-13T07:06:24;101260.63;;;15.97;100.00
45050;BME280;61798;48.048;-1.928;2023-07-13T07:08:30;101283.06;;;16.11;100.00
45050;BME280;61798;48.048;-1.928;2023-07-13T07:10:38;101277.19;;;16.21;100.00
45050;BME280;61798;48.048;-1.928;2023-07-13T07:12:44;101294.59;;;16.39;100.00
45050;BME280;61798;48.048;-1.928;2023-07-13T07:14:51;101286.22;;;16.47;100.00
45050;BME280;61798;48.048;-1.928;2023-07-13T07:16:57;101259.91;;;16.22;100.00
45050;BME280;61798;48.048;-1.928;2023-07-13T07:19:04;101301.19;;;16.50;100.00
45050;BME280;61798;48.048;-1.928;2023-07-13T07:21:11;101264.84;;;16.32;100.00
45050;BME280;61798;48.048;-1.928;2023-07-13T07:23:18;101298.41;;;16.64;100.00
45050;BME280;61798;48.048;-1.928;2023-07-13T07:25:25;101294.88;;;16.63;100.00
45050;BME280;61798;48.048;-1.928;2023-07-13T07:27:32;101248.81;;;16.37;100.00
45050;BME280;61798;48.048;-1.928;2023-07-13T07:29:38;101284.63;;;16.65;100.00
45050;BME280;61798;48.048;-1.928;2023-07-13T07:31:45;101262.41;;;16.56;100.00
45050;BME280;61798;48.048;-1.928;2023-07-13T07:33:51;101305.44;;;16.97;100.00
45050;BME280;61798;48.048;-1.928;2023-07-13T07:35:58;101295.38;;;17.05;100.00
45050;BME280;61798;48.048;-1.928;2023-07-13T07:38:04;101302.41;;;17.12;100.00
45050;BME280;61798;48.048;-1.928;2023-07-13T07:40:11;101299.94;;;17.11;100.00
45050;BME280;61798;48.048;-1.928;2023-07-13T07:42:19;101286.84;;;17.08;100.00
45050;BME280;61798;48.048;-1.928;2023-07-13T07:44:25;101295.75;;;17.15;100.00
45050;BME280;61798;48.048;-1.928;2023-07-13T07:46:34;101300.84;;;17.30;100.00
45050;BME280;61798;48.048;-1.928;2023-07-13T07:48:40;101295.19;;;17.32;100.00
45050;BME280;61798;48.048;-1.928;2023-07-13T07:50:47;101290.31;;;17.41;100.00
45050;BME280;61798;48.048;-1.928;2023-07-13T07:52:53;101299.53;;;17.59;100.00
45050;BME280;61798;48.048;-1.928;2023-07-13T07:55:09;101302.47;;;17.57;100.00
45050;BME280;61798;48.048;-1.928;2023-07-13T07:57:18;101287.13;;;17.51;100.00
45050;BME280;61798;48.048;-1.928;2023-07-13T07:59:24;101291.03;;;17.74;100.00
45050;BME280;61798;48.048;-1.928;2023-07-13T08:01:31;101307.00;;;17.82;100.00
45050;BME280;61798;48.048;-1.928;2023-07-13T08:03:37;101293.22;;;17.65;100.00
45050;BME280;61798;48.048;-1.928;2023-07-13T08:05:44;101293.38;;;17.89;100.00
45050;BME280;61798;48.048;-1.928;2023-07-13T08:07:50;101290.50;;;17.84;100.00
45050;BME280;61798;48.048;-1.928;2023-07-13T08:09:57;101305.78;;;17.97;100.00
45050;BME280;61798;48.048;-1.928;2023-07-13T08:12:04;101307.38;;;18.05;100.00
45050;BME280;61798;48.048;-1.928;2023-07-13T08:14:10;101301.66;;;17.94;100.00
45050;BME280;61798;48.048;-1.928;2023-07-13T08:16:17;101290.72;;;18.01;100.00
45050;BME280;61798;48.048;-1.928;2023-07-13T08:18:23;101287.84;;;17.96;100.00
45050;BME280;61798;48.048;-1.928;2023-07-13T08:20:30;101283.63;;;18.00;100.00
45050;BME280;61798;48.048;-1.928;2023-07-13T08:22:36;101277.09;;;18.27;100.00
45050;BME280;61798;48.048;-1.928;2023-07-13T08:24:42;101284.66;;;18.68;100.00
45050;BME280;61798;48.048;-1.928;2023-07-13T08:26:50;101267.06;;;18.58;100.00
45050;BME280;61798;48.048;-1.928;2023-07-13T08:28:56;101271.56;;;18.77;100.00
45050;BME280;61798;48.048;-1.928;2023-07-13T08:31:05;101255.09;;;18.47;100.00
45050;BME280;61798;48.048;-1.928;2023-07-13T08:33:12;101228.47;;;18.25;100.00
45050;BME280;61798;48.048;-1.928;2023-07-13T08:35:19;101268.97;;;18.70;100.00
45050;BME280;61798;48.048;-1.928;2023-07-13T08:37:25;101265.66;;;18.68;100.00
45050;BME280;61798;48.048;-1.928;2023-07-13T08:39:32;101257.16;;;18.76;100.00
45050;BME280;61798;48.048;-1.928;2023-07-13T08:41:39;101249.88;;;19.01;100.00
45050;BME280;61798;48.048;-1.928;2023-07-13T08:44:16;101246.94;;;19.15;100.00
45050;BME280;61798;48.048;-1.928;2023-07-13T08:46:32;101237.47;;;18.93;100.00
45050;BME280;61798;48.048;-1.928;2023-07-13T08:48:50;101242.59;;;19.26;100.00
45050;BME280;61798;48.048;-1.928;2023-07-13T08:51:09;101241.53;;;19.27;100.00
45050;BME280;61798;48.048;-1.928;2023-07-13T08:53:18;101231.59;;;19.32;100.00
45050;BME280;61798;48.048;-1.928;2023-07-13T08:55:33;101250.75;;;19.38;100.00
45050;BME280;61798;48.048;-1.928;2023-07-13T08:57:43;101239.34;;;18.92;100.00
45050;BME280;61798;48.048;-1.928;2023-07-13T08:59:53;101240.41;;;18.79;100.00
45050;BME280;61798;48.048;-1.928;2023-07-13T09:04:28;101231.09;;;19.36;100.00
45050;BME280;61798;48.048;-1.928;2023-07-13T09:06:50;101231.34;;;19.22;100.00
45050;BME280;61798;48.048;-1.928;2023-07-13T09:09:50;101218.81;;;18.97;100.00
45050;BME280;61798;48.048;-1.928;2023-07-13T09:11:50;101238.53;;;19.16;100.00
45050;BME280;61798;48.048;-1.928;2023-07-13T09:16:11;101243.84;;;19.11;100.00
45050;BME280;61798;48.048;-1.928;2023-07-13T09:18:37;101239.50;;;19.10;100.00
45050;BME280;61798;48.048;-1.928;2023-07-13T09:20:54;101245.28;;;19.13;100.00
45050;BME280;61798;48.048;-1.928;2023-07-13T09:23:09;101238.56;;;19.28;100.00
45050;BME280;61798;48.048;-1.928;2023-07-13T09:27:43;101182.13;;;19.60;100.00
45050;BME280;61798;48.048;-1.928;2023-07-13T09:29:58;101204.19;;;19.22;100.00
45050;BME280;61798;48.048;-1.928;2023-07-13T09:32:10;101254.63;;;19.42;100.00
45050;BME280;61798;48.048;-1.928;2023-07-13T09:34:20;101249.91;;;19.37;100.00
45050;BME280;61798;48.048;-1.928;2023-07-13T09:36:31;101221.88;;;19.12;100.00
45050;BME280;61798;48.048;-1.928;2023-07-13T09:38:38;101239.25;;;19.48;100.00
45050;BME280;61798;48.048;-1.928;2023-07-13T09:43:26;101254.09;;;19.81;100.00
45050;BME280;61798;48.048;-1.928;2023-07-13T09:45:34;101254.53;;;19.90;100.00
45050;BME280;61798;48.048;-1.928;2023-07-13T09:47:42;101248.22;;;20.02;100.00
45050;BME280;61798;48.048;-1.928;2023-07-13T09:52:09;101250.34;;;20.76;100.00
45050;BME280;61798;48.048;-1.928;2023-07-13T09:54:19;101242.94;;;21.06;100.00
45050;BME280;61798;48.048;-1.928;2023-07-13T09:56:28;101241.78;;;20.84;100.00
45050;BME280;61798;48.048;-1.928;2023-07-13T09:58:38;101240.59;;;20.63;100.00
45050;BME280;61798;48.048;-1.928;2023-07-13T10:01:03;101239.53;;;20.64;100.00
45050;BME280;61798;48.048;-1.928;2023-07-13T10:03:22;101239.47;;;20.93;100.00
45050;BME280;61798;48.048;-1.928;2023-07-13T10:05:40;101237.97;;;21.20;100.00
45050;BME280;61798;48.048;-1.928;2023-07-13T10:07:47;101216.53;;;20.89;100.00
45050;BME280;61798;48.048;-1.928;2023-07-13T10:09:55;101240.56;;;21.09;100.00
45050;BME280;61798;48.048;-1.928;2023-07-13T10:12:02;101225.09;;;20.80;100.00
45050;BME280;61798;48.048;-1.928;2023-07-13T10:14:16;101231.22;;;20.88;100.00
45050;BME280;61798;48.048;-1.928;2023-07-13T10:16:26;101225.03;;;21.10;100.00
45050;BME280;61798;48.048;-1.928;2023-07-13T10:20:46;101227.66;;;21.05;100.00
45050;BME280;61798;48.048;-1.928;2023-07-13T10:23:10;101222.72;;;21.41;100.00
45050;BME280;61798;48.048;-1.928;2023-07-13T10:25:24;101212.09;;;21.22;100.00
45050;BME280;61798;48.048;-1.928;2023-07-13T10:27:35;101236.16;;;21.26;100.00
45050;BME280;61798;48.048;-1.928;2023-07-13T10:32:14;101228.19;;;21.41;100.00
45050;BME280;61798;48.048;-1.928;2023-07-13T10:34:22;101213.00;;;21.96;100.00
45050;BME280;61798;48.048;-1.928;2023-07-13T10:36:45;101231.16;;;21.85;100.00
45050;BME280;61798;48.048;-1.928;2023-07-13T10:38:53;101203.38;;;22.16;100.00
45050;BME280;61798;48.048;-1.928;2023-07-13T10:41:11;101204.06;;;22.34;100.00
45050;BME280;61798;48.048;-1.928;2023-07-13T10:43:21;101214.66;;;22.25;100.00
45050;BME280;61798;48.048;-1.928;2023-07-13T10:45:34;101214.59;;;22.47;100.00
45050;BME280;61798;48.048;-1.928;2023-07-13T10:47:43;101221.59;;;22.38;100.00
45050;BME280;61798;48.048;-1.928;2023-07-13T10:49:53;101247.38;;;22.19;100.00
45050;BME280;61798;48.048;-1.928;2023-07-13T10:52:01;101215.75;;;22.24;100.00
45050;BME280;61798;48.048;-1.928;2023-07-13T10:54:18;101233.34;;;22.38;100.00
45050;BME280;61798;48.048;-1.928;2023-07-13T10:56:32;101212.69;;;22.48;100.00
45050;BME280;61798;48.048;-1.928;2023-07-13T10:58:40;101235.78;;;22.68;100.00
45050;BME280;61798;48.048;-1.928;2023-07-13T11:01:14;101227.19;;;22.54;100.00
45050;BME280;61798;48.048;-1.928;2023-07-13T11:03:22;101215.72;;;22.52;100.00
45050;BME280;61798;48.048;-1.928;2023-07-13T11:05:32;101217.84;;;22.49;100.00
45050;BME280;61798;48.048;-1.928;2023-07-13T11:08:17;101208.22;;;22.36;100.00
45050;BME280;61798;48.048;-1.928;2023-07-13T11:10:52;101241.53;;;22.71;100.00
45050;BME280;61798;48.048;-1.928;2023-07-13T11:13:00;101235.81;;;22.40;100.00
45050;BME280;61798;48.048;-1.928;2023-07-13T11:15:10;101215.50;;;22.25;100.00